sensor_id;sensor_type;location;lat;lon;timestamp;P1;durP1;ratioP1;P2;durP2;ratioP2
38557;SDS011;24333;42.626;23.308;2023-05-07T00:01:25;7.45;;;3.10;;
38557;SDS011;24333;42.626;23.308;2023-05-07T00:03:50;6.85;;;3.30;;
38557;SDS011;24333;42.626;23.308;2023-05-07T02:41:00;4.85;;;3.08;;
38557;SDS011;24333;42.626;23.308;2023-05-07T02:43:26;8.07;;;3.83;;
38557;SDS011;24333;42.626;23.308;2023-05-07T02:46:01;6.53;;;3.40;;
38557;SDS011;24333;42.626;23.308;2023-05-07T02:48:26;7.22;;;3.63;;
38557;SDS011;24333;42.626;23.308;2023-05-07T02:51:04;8.82;;;3.58;;
38557;SDS011;24333;42.626;23.308;2023-05-07T02:53:42;8.80;;;3.55;;
38557;SDS011;24333;42.626;23.308;2023-05-07T02:56:08;6.22;;;3.63;;
38557;SDS011;24333;42.626;23.308;2023-05-07T02:58:33;5.85;;;3.47;;
38557;SDS011;24333;42.626;23.308;2023-05-07T03:00:59;11.77;;;4.65;;
38557;SDS011;24333;42.626;23.308;2023-05-07T03:03:24;10.98;;;4.78;;
38557;SDS011;24333;42.626;23.308;2023-05-07T03:05:49;9.05;;;4.68;;
38557;SDS011;24333;42.626;23.308;2023-05-07T03:08:20;7.70;;;4.25;;
38557;SDS011;24333;42.626;23.308;2023-05-07T03:10:45;10.40;;;4.32;;
38557;SDS011;24333;42.626;23.308;2023-05-07T03:13:11;9.27;;;4.43;;
38557;SDS011;24333;42.626;23.308;2023-05-07T03:15:37;7.57;;;4.30;;
38557;SDS011;24333;42.626;23.308;2023-05-07T03:18:02;11.27;;;4.78;;
38557;SDS011;24333;42.626;23.308;2023-05-07T03:20:40;9.18;;;5.38;;
38557;SDS011;24333;42.626;23.308;2023-05-07T03:23:11;10.27;;;5.53;;
38557;SDS011;24333;42.626;23.308;2023-05-07T03:25:37;11.02;;;5.25;;
38557;SDS011;24333;42.626;23.308;2023-05-07T03:28:02;10.43;;;4.50;;
38557;SDS011;24333;42.626;23.308;2023-05-07T03:30:27;11.23;;;4.72;;
38557;SDS011;24333;42.626;23.308;2023-05-07T03:32:53;13.60;;;6.15;;
38557;SDS011;24333;42.626;23.308;2023-05-07T03:35:18;8.60;;;4.90;;
38557;SDS011;24333;42.626;23.308;2023-05-07T03:37:50;10.18;;;4.93;;
38557;SDS011;24333;42.626;23.308;2023-05-07T03:40:15;9.02;;;4.82;;
38557;SDS011;24333;42.626;23.308;2023-05-07T03:42:41;12.05;;;5.78;;
38557;SDS011;24333;42.626;23.308;2023-05-07T03:45:06;9.82;;;5.10;;
38557;SDS011;24333;42.626;23.308;2023-05-07T03:47:32;11.23;;;5.45;;
38557;SDS011;24333;42.626;23.308;2023-05-07T03:50:10;12.93;;;6.00;;
38557;SDS011;24333;42.626;23.308;2023-05-07T03:52:42;10.65;;;5.45;;
38557;SDS011;24333;42.626;23.308;2023-05-07T03:55:08;12.02;;;5.50;;
38557;SDS011;24333;42.626;23.308;2023-05-07T03:57:33;12.65;;;6.07;;
38557;SDS011;24333;42.626;23.308;2023-05-07T03:59:59;14.18;;;5.38;;
38557;SDS011;24333;42.626;23.308;2023-05-07T04:02:24;12.00;;;5.70;;
38557;SDS011;24333;42.626;23.308;2023-05-07T04:04:50;13.23;;;6.38;;
38557;SDS011;24333;42.626;23.308;2023-05-07T04:09:55;15.02;;;6.93;;
38557;SDS011;24333;42.626;23.308;2023-05-07T04:12:20;16.60;;;7.93;;
38557;SDS011;24333;42.626;23.308;2023-05-07T04:14:45;17.13;;;7.28;;
38557;SDS011;24333;42.626;23.308;2023-05-07T04:17:11;13.18;;;7.45;;
38557;SDS011;24333;42.626;23.308;2023-05-07T04:19:36;15.35;;;8.00;;
38557;SDS011;24333;42.626;23.308;2023-05-07T04:22:02;17.05;;;8.02;;
38557;SDS011;24333;42.626;23.308;2023-05-07T04:24:27;14.90;;;7.30;;
38557;SDS011;24333;42.626;23.308;2023-05-07T04:26:52;14.05;;;7.25;;
38557;SDS011;24333;42.626;23.308;2023-05-07T04:29:18;14.40;;;6.75;;
38557;SDS011;24333;42.626;23.308;2023-05-07T04:31:43;14.90;;;7.13;;
38557;SDS011;24333;42.626;23.308;2023-05-07T04:34:12;16.02;;;7.38;;
38557;SDS011;24333;42.626;23.308;2023-05-07T04:36:38;14.70;;;7.40;;
38557;SDS011;24333;42.626;23.308;2023-05-07T09:06:53;10.77;;;4.95;;
38557;SDS011;24333;42.626;23.308;2023-05-07T09:09:21;9.85;;;5.22;;
38557;SDS011;24333;42.626;23.308;2023-05-07T09:11:47;10.50;;;4.90;;
38557;SDS011;24333;42.626;23.308;2023-05-07T09:14:13;12.48;;;5.00;;
38557;SDS011;24333;42.626;23.308;2023-05-07T09:16:39;8.07;;;4.72;;
38557;SDS011;24333;42.626;23.308;2023-05-07T09:19:04;7.93;;;4.25;;
38557;SDS011;24333;42.626;23.308;2023-05-07T09:21:30;9.02;;;4.95;;
38557;SDS011;24333;42.626;23.308;2023-05-07T09:23:55;11.18;;;4.90;;
38557;SDS011;24333;42.626;23.308;2023-05-07T09:26:21;7.88;;;4.72;;
38557;SDS011;24333;42.626;23.308;2023-05-07T09:28:47;8.30;;;4.50;;
38557;SDS011;24333;42.626;23.308;2023-05-07T09:54:31;7.90;;;4.53;;
38557;SDS011;24333;42.626;23.308;2023-05-07T09:57:29;6.32;;;3.85;;
38557;SDS011;24333;42.626;23.308;2023-05-07T12:34:56;4.90;;;3.40;;
38557;SDS011;24333;42.626;23.308;2023-05-07T12:37:24;4.32;;;3.00;;
38557;SDS011;24333;42.626;23.308;2023-05-07T12:40:05;4.30;;;3.05;;
38557;SDS011;24333;42.626;23.308;2023-05-07T12:42:35;4.88;;;2.78;;
38557;SDS011;24333;42.626;23.308;2023-05-07T12:45:11;8.05;;;2.90;;
38557;SDS011;24333;42.626;23.308;2023-05-07T12:51:08;6.28;;;4.00;;
38557;SDS011;24333;42.626;23.308;2023-05-07T12:53:41;4.45;;;2.45;;
38557;SDS011;24333;42.626;23.308;2023-05-07T12:56:44;5.20;;;2.88;;
38557;SDS011;24333;42.626;23.308;2023-05-07T12:59:10;6.45;;;3.03;;
38557;SDS011;24333;42.626;23.308;2023-05-07T13:01:36;3.75;;;2.88;;
38557;SDS011;24333;42.626;23.308;2023-05-07T13:04:05;5.45;;;3.13;;
38557;SDS011;24333;42.626;23.308;2023-05-07T13:06:31;4.43;;;3.05;;
38557;SDS011;24333;42.626;23.308;2023-05-07T13:08:56;5.30;;;3.00;;
38557;SDS011;24333;42.626;23.308;2023-05-07T13:11:22;5.60;;;3.20;;
38557;SDS011;24333;42.626;23.308;2023-05-07T13:13:48;6.55;;;3.28;;
38557;SDS011;24333;42.626;23.308;2023-05-07T13:16:13;3.25;;;2.63;;
38557;SDS011;24333;42.626;23.308;2023-05-07T13:18:39;4.25;;;2.80;;
38557;SDS011;24333;42.626;23.308;2023-05-07T13:21:05;7.22;;;2.60;;
38557;SDS011;24333;42.626;23.308;2023-05-07T13:23:33;8.38;;;3.00;;
38557;SDS011;24333;42.626;23.308;2023-05-07T13:25:58;5.07;;;2.75;;
38557;SDS011;24333;42.626;23.308;2023-05-07T13:28:25;3.33;;;2.40;;
38557;SDS011;24333;42.626;23.308;2023-05-07T13:30:52;2.63;;;2.40;;
38557;SDS011;24333;42.626;23.308;2023-05-07T13:33:20;3.85;;;2.50;;
38557;SDS011;24333;42.626;23.308;2023-05-07T13:35:45;3.65;;;2.40;;
38557;SDS011;24333;42.626;23.308;2023-05-07T13:38:11;3.20;;;2.42;;
38557;SDS011;24333;42.626;23.308;2023-05-07T13:40:36;3.78;;;2.60;;
38557;SDS011;24333;42.626;23.308;2023-05-07T13:43:02;3.33;;;2.42;;
38557;SDS011;24333;42.626;23.308;2023-05-07T13:45:28;3.95;;;2.50;;
38557;SDS011;24333;42.626;23.308;2023-05-07T13:47:54;3.60;;;2.80;;
38557;SDS011;24333;42.626;23.308;2023-05-07T13:50:21;5.88;;;3.08;;
38557;SDS011;24333;42.626;23.308;2023-05-07T13:52:47;4.90;;;2.50;;
38557;SDS011;24333;42.626;23.308;2023-05-07T13:55:19;5.82;;;3.08;;
38557;SDS011;24333;42.626;23.308;2023-05-07T13:57:45;4.90;;;2.75;;
38557;SDS011;24333;42.626;23.308;2023-05-07T14:00:12;4.35;;;3.30;;
38557;SDS011;24333;42.626;23.308;2023-05-07T14:02:39;5.32;;;2.97;;
38557;SDS011;24333;42.626;23.308;2023-05-07T14:05:04;3.55;;;2.80;;
38557;SDS011;24333;42.626;23.308;2023-05-07T14:07:30;3.50;;;2.50;;
38557;SDS011;24333;42.626;23.308;2023-05-07T14:09:56;3.80;;;2.63;;
38557;SDS011;24333;42.626;23.308;2023-05-07T14:12:22;10.38;;;2.67;;
38557;SDS011;24333;42.626;23.308;2023-05-07T14:14:47;10.75;;;3.03;;
38557;SDS011;24333;42.626;23.308;2023-05-07T14:17:14;4.25;;;2.80;;
38557;SDS011;24333;42.626;23.308;2023-05-07T14:19:41;5.88;;;2.92;;
38557;SDS011;24333;42.626;23.308;2023-05-07T14:22:07;5.22;;;3.17;;
38557;SDS011;24333;42.626;23.308;2023-05-07T14:27:20;4.82;;;2.70;;
38557;SDS011;24333;42.626;23.308;2023-05-07T14:29:46;3.17;;;2.55;;
38557;SDS011;24333;42.626;23.308;2023-05-07T14:32:15;5.32;;;3.10;;
38557;SDS011;24333;42.626;23.308;2023-05-07T16:19:21;5.53;;;3.60;;
38557;SDS011;24333;42.626;23.308;2023-05-07T16:21:47;6.18;;;3.35;;
38557;SDS011;24333;42.626;23.308;2023-05-07T16:24:13;6.53;;;3.50;;
38557;SDS011;24333;42.626;23.308;2023-05-07T16:55:04;8.80;;;6.10;;
38557;SDS011;24333;42.626;23.308;2023-05-07T17:01:00;6.25;;;3.60;;
38557;SDS011;24333;42.626;23.308;2023-05-07T17:03:57;12.55;;;4.05;;
38557;SDS011;24333;42.626;23.308;2023-05-07T17:06:31;7.00;;;3.60;;
38557;SDS011;24333;42.626;23.308;2023-05-07T17:08:57;7.22;;;3.50;;
38557;SDS011;24333;42.626;23.308;2023-05-07T17:11:22;8.75;;;3.97;;
38557;SDS011;24333;42.626;23.308;2023-05-07T17:13:48;12.88;;;5.45;;
38557;SDS011;24333;42.626;23.308;2023-05-07T17:52:26;17.05;;;7.32;;
38557;SDS011;24333;42.626;23.308;2023-05-07T17:54:52;22.67;;;8.82;;
38557;SDS011;24333;42.626;23.308;2023-05-07T17:57:17;22.08;;;10.57;;
38557;SDS011;24333;42.626;23.308;2023-05-07T17:59:42;15.23;;;7.38;;
38557;SDS011;24333;42.626;23.308;2023-05-07T18:02:08;11.95;;;5.25;;
38557;SDS011;24333;42.626;23.308;2023-05-07T18:04:33;39.47;;;14.98;;
38557;SDS011;24333;42.626;23.308;2023-05-07T18:22:30;16.08;;;7.45;;
38557;SDS011;24333;42.626;23.308;2023-05-07T18:24:55;12.45;;;5.70;;
38557;SDS011;24333;42.626;23.308;2023-05-07T18:27:20;11.60;;;4.43;;
38557;SDS011;24333;42.626;23.308;2023-05-07T18:29:46;12.23;;;5.18;;
38557;SDS011;24333;42.626;23.308;2023-05-07T18:32:11;13.80;;;9.13;;
38557;SDS011;24333;42.626;23.308;2023-05-07T18:34:37;10.85;;;6.10;;
38557;SDS011;24333;42.626;23.308;2023-05-07T18:37:03;8.80;;;4.22;;
38557;SDS011;24333;42.626;23.308;2023-05-07T18:39:28;6.15;;;3.45;;
38557;SDS011;24333;42.626;23.308;2023-05-07T18:41:53;7.57;;;3.08;;
38557;SDS011;24333;42.626;23.308;2023-05-07T18:44:20;5.72;;;3.00;;
38557;SDS011;24333;42.626;23.308;2023-05-07T18:46:45;5.88;;;3.20;;
38557;SDS011;24333;42.626;23.308;2023-05-07T18:49:12;4.85;;;2.72;;
38557;SDS011;24333;42.626;23.308;2023-05-07T18:51:37;5.95;;;3.22;;
38557;SDS011;24333;42.626;23.308;2023-05-07T18:54:03;6.30;;;2.70;;
38557;SDS011;24333;42.626;23.308;2023-05-07T18:56:28;6.53;;;3.75;;
38557;SDS011;24333;42.626;23.308;2023-05-07T18:58:54;10.45;;;3.90;;
38557;SDS011;24333;42.626;23.308;2023-05-07T19:01:19;26.52;;;8.68;;
38557;SDS011;24333;42.626;23.308;2023-05-07T19:03:45;29.90;;;9.52;;
38557;SDS011;24333;42.626;23.308;2023-05-07T19:35:18;17.25;;;8.80;;
38557;SDS011;24333;42.626;23.308;2023-05-07T19:37:44;14.93;;;7.97;;
38557;SDS011;24333;42.626;23.308;2023-05-07T19:40:09;13.05;;;6.35;;
38557;SDS011;24333;42.626;23.308;2023-05-07T19:42:35;12.23;;;6.90;;
38557;SDS011;24333;42.626;23.308;2023-05-07T19:45:01;14.98;;;7.55;;
38557;SDS011;24333;42.626;23.308;2023-05-07T19:47:28;12.13;;;5.20;;
38557;SDS011;24333;42.626;23.308;2023-05-07T19:49:53;10.55;;;4.78;;
38557;SDS011;24333;42.626;23.308;2023-05-07T19:52:19;7.43;;;3.70;;
38557;SDS011;24333;42.626;23.308;2023-05-07T19:54:44;7.45;;;3.38;;
38557;SDS011;24333;42.626;23.308;2023-05-07T19:57:09;6.18;;;3.47;;
38557;SDS011;24333;42.626;23.308;2023-05-07T19:59:35;12.40;;;3.72;;
38557;SDS011;24333;42.626;23.308;2023-05-07T20:02:00;10.23;;;3.25;;
38557;SDS011;24333;42.626;23.308;2023-05-07T20:04:26;5.85;;;3.15;;
38557;SDS011;24333;42.626;23.308;2023-05-07T20:06:55;6.00;;;3.22;;
38557;SDS011;24333;42.626;23.308;2023-05-07T22:38:36;9.75;;;4.25;;
38557;SDS011;24333;42.626;23.308;2023-05-07T22:41:02;10.80;;;4.32;;
38557;SDS011;24333;42.626;23.308;2023-05-07T22:43:27;5.72;;;4.20;;
38557;SDS011;24333;42.626;23.308;2023-05-07T22:45:57;6.45;;;4.00;;
38557;SDS011;24333;42.626;23.308;2023-05-07T22:48:25;9.93;;;4.60;;
38557;SDS011;24333;42.626;23.308;2023-05-07T22:50:51;10.35;;;3.78;;
